sensor_id;sensor_type;location;lat;lon;timestamp;P1;durP1;ratioP1;P2;durP2;ratioP2
2452;SDS011;63678;47.994;7.854;2024-01-30T00:01:05;5.20;;;3.10;;
2452;SDS011;63678;47.994;7.854;2024-01-30T00:03:38;5.82;;;3.20;;
2452;SDS011;63678;47.994;7.854;2024-01-30T00:06:11;5.57;;;3.00;;
2452;SDS011;63678;47.994;7.854;2024-01-30T00:08:46;7.22;;;2.65;;
2452;SDS011;63678;47.994;7.854;2024-01-30T00:11:20;5.80;;;2.85;;
2452;SDS011;63678;47.994;7.854;2024-01-30T00:13:52;6.97;;;3.10;;
2452;SDS011;63678;47.994;7.854;2024-01-30T00:16:25;5.15;;;2.65;;
2452;SDS011;63678;47.994;7.854;2024-01-30T00:18:58;6.07;;;3.00;;
2452;SDS011;63678;47.994;7.854;2024-01-30T00:21:30;5.00;;;3.50;;
2452;SDS011;63678;47.994;7.854;2024-01-30T00:24:03;8.27;;;2.95;;
2452;SDS011;63678;47.994;7.854;2024-01-30T00:26:36;6.37;;;2.60;;
2452;SDS011;63678;47.994;7.854;2024-01-30T00:29:08;5.75;;;2.90;;
2452;SDS011;63678;47.994;7.854;2024-01-30T00:31:41;5.35;;;3.03;;
2452;SDS011;63678;47.994;7.854;2024-01-30T00:34:14;5.95;;;3.17;;
2452;SDS011;63678;47.994;7.854;2024-01-30T00:37:08;8.82;;;2.88;;
2452;SDS011;63678;47.994;7.854;2024-01-30T00:39:40;4.37;;;2.23;;
2452;SDS011;63678;47.994;7.854;2024-01-30T00:42:12;6.78;;;2.88;;
2452;SDS011;63678;47.994;7.854;2024-01-30T00:44:45;6.93;;;3.05;;
2452;SDS011;63678;47.994;7.854;2024-01-30T00:47:17;4.90;;;2.70;;
2452;SDS011;63678;47.994;7.854;2024-01-30T00:49:50;4.72;;;2.70;;
2452;SDS011;63678;47.994;7.854;2024-01-30T00:52:22;5.23;;;2.47;;
2452;SDS011;63678;47.994;7.854;2024-01-30T00:54:55;4.93;;;2.85;;
2452;SDS011;63678;47.994;7.854;2024-01-30T00:57:28;4.93;;;3.00;;
2452;SDS011;63678;47.994;7.854;2024-01-30T01:00:00;5.50;;;3.08;;
2452;SDS011;63678;47.994;7.854;2024-01-30T01:02:35;5.50;;;3.15;;
2452;SDS011;63678;47.994;7.854;2024-01-30T01:05:07;5.50;;;2.70;;
2452;SDS011;63678;47.994;7.854;2024-01-30T01:07:40;5.88;;;2.70;;
2452;SDS011;63678;47.994;7.854;2024-01-30T01:10:14;6.13;;;3.05;;
2452;SDS011;63678;47.994;7.854;2024-01-30T01:12:48;7.13;;;2.92;;
2452;SDS011;63678;47.994;7.854;2024-01-30T01:15:21;6.75;;;3.13;;
2452;SDS011;63678;47.994;7.854;2024-01-30T01:17:55;6.00;;;3.17;;
2452;SDS011;63678;47.994;7.854;2024-01-30T01:20:28;6.80;;;2.80;;
2452;SDS011;63678;47.994;7.854;2024-01-30T01:23:00;7.97;;;2.80;;
2452;SDS011;63678;47.994;7.854;2024-01-30T01:25:32;4.97;;;2.60;;
2452;SDS011;63678;47.994;7.854;2024-01-30T01:28:05;5.55;;;3.42;;
2452;SDS011;63678;47.994;7.854;2024-01-30T01:30:37;6.60;;;3.23;;
2452;SDS011;63678;47.994;7.854;2024-01-30T01:33:10;5.47;;;2.75;;
2452;SDS011;63678;47.994;7.854;2024-01-30T01:35:46;6.15;;;2.90;;
2452;SDS011;63678;47.994;7.854;2024-01-30T01:38:18;6.70;;;2.92;;
2452;SDS011;63678;47.994;7.854;2024-01-30T01:40:51;9.60;;;3.05;;
2452;SDS011;63678;47.994;7.854;2024-01-30T01:43:23;5.13;;;2.80;;
2452;SDS011;63678;47.994;7.854;2024-01-30T01:45:56;5.85;;;3.05;;
2452;SDS011;63678;47.994;7.854;2024-01-30T01:48:29;6.97;;;3.28;;
2452;SDS011;63678;47.994;7.854;2024-01-30T01:51:01;5.57;;;3.10;;
2452;SDS011;63678;47.994;7.854;2024-01-30T01:53:34;6.07;;;2.50;;
2452;SDS011;63678;47.994;7.854;2024-01-30T01:56:07;4.67;;;2.67;;
2452;SDS011;63678;47.994;7.854;2024-01-30T01:58:40;5.32;;;2.92;;
2452;SDS011;63678;47.994;7.854;2024-01-30T02:01:13;4.97;;;2.83;;
2452;SDS011;63678;47.994;7.854;2024-01-30T02:03:48;5.80;;;2.80;;
2452;SDS011;63678;47.994;7.854;2024-01-30T02:06:20;4.85;;;2.33;;
2452;SDS011;63678;47.994;7.854;2024-01-30T02:08:53;9.73;;;2.70;;
2452;SDS011;63678;47.994;7.854;2024-01-30T02:11:26;6.25;;;2.80;;
2452;SDS011;63678;47.994;7.854;2024-01-30T02:14:04;5.28;;;2.45;;
2452;SDS011;63678;47.994;7.854;2024-01-30T02:16:57;5.30;;;2.47;;
2452;SDS011;63678;47.994;7.854;2024-01-30T02:19:30;4.95;;;2.50;;
2452;SDS011;63678;47.994;7.854;2024-01-30T02:22:02;5.50;;;2.80;;
2452;SDS011;63678;47.994;7.854;2024-01-30T02:24:35;6.38;;;2.53;;
2452;SDS011;63678;47.994;7.854;2024-01-30T02:27:08;4.82;;;2.60;;
2452;SDS011;63678;47.994;7.854;2024-01-30T02:29:40;6.32;;;2.67;;
2452;SDS011;63678;47.994;7.854;2024-01-30T02:32:12;6.03;;;2.35;;
2452;SDS011;63678;47.994;7.854;2024-01-30T02:34:45;4.63;;;2.50;;
2452;SDS011;63678;47.994;7.854;2024-01-30T02:37:17;4.88;;;2.90;;
2452;SDS011;63678;47.994;7.854;2024-01-30T02:39:50;4.60;;;2.63;;
2452;SDS011;63678;47.994;7.854;2024-01-30T02:42:43;4.65;;;2.30;;
2452;SDS011;63678;47.994;7.854;2024-01-30T02:45:16;6.45;;;2.85;;
2452;SDS011;63678;47.994;7.854;2024-01-30T02:47:49;5.37;;;2.77;;
2452;SDS011;63678;47.994;7.854;2024-01-30T02:50:21;5.25;;;2.70;;
2452;SDS011;63678;47.994;7.854;2024-01-30T02:52:54;5.40;;;2.97;;
2452;SDS011;63678;47.994;7.854;2024-01-30T02:55:26;6.00;;;3.33;;
2452;SDS011;63678;47.994;7.854;2024-01-30T02:58:00;4.82;;;2.63;;
2452;SDS011;63678;47.994;7.854;2024-01-30T03:00:32;6.80;;;3.40;;
2452;SDS011;63678;47.994;7.854;2024-01-30T03:03:05;5.07;;;2.80;;
2452;SDS011;63678;47.994;7.854;2024-01-30T03:05:59;5.50;;;2.38;;
2452;SDS011;63678;47.994;7.854;2024-01-30T03:08:32;4.78;;;2.60;;
2452;SDS011;63678;47.994;7.854;2024-01-30T03:11:04;5.20;;;3.17;;
2452;SDS011;63678;47.994;7.854;2024-01-30T03:13:37;5.03;;;2.60;;
2452;SDS011;63678;47.994;7.854;2024-01-30T03:16:09;5.05;;;2.50;;
2452;SDS011;63678;47.994;7.854;2024-01-30T03:18:42;6.55;;;2.72;;
2452;SDS011;63678;47.994;7.854;2024-01-30T03:21:14;4.82;;;2.50;;
2452;SDS011;63678;47.994;7.854;2024-01-30T03:23:47;5.72;;;2.70;;
2452;SDS011;63678;47.994;7.854;2024-01-30T03:26:19;5.30;;;2.90;;
2452;SDS011;63678;47.994;7.854;2024-01-30T03:28:51;5.57;;;2.60;;
2452;SDS011;63678;47.994;7.854;2024-01-30T03:31:24;6.32;;;2.90;;
2452;SDS011;63678;47.994;7.854;2024-01-30T03:33:57;6.00;;;3.15;;
2452;SDS011;63678;47.994;7.854;2024-01-30T03:36:30;5.32;;;2.90;;
2452;SDS011;63678;47.994;7.854;2024-01-30T03:39:04;5.37;;;2.83;;
2452;SDS011;63678;47.994;7.854;2024-01-30T03:41:36;5.05;;;3.10;;
2452;SDS011;63678;47.994;7.854;2024-01-30T03:44:09;5.97;;;2.88;;
2452;SDS011;63678;47.994;7.854;2024-01-30T03:46:42;5.22;;;3.10;;
2452;SDS011;63678;47.994;7.854;2024-01-30T03:49:14;5.00;;;3.22;;
2452;SDS011;63678;47.994;7.854;2024-01-30T03:51:47;5.53;;;3.50;;
2452;SDS011;63678;47.994;7.854;2024-01-30T03:54:19;6.72;;;3.22;;
2452;SDS011;63678;47.994;7.854;2024-01-30T03:56:52;5.88;;;2.95;;
2452;SDS011;63678;47.994;7.854;2024-01-30T03:59:25;6.22;;;2.75;;
2452;SDS011;63678;47.994;7.854;2024-01-30T04:01:57;6.55;;;3.08;;
2452;SDS011;63678;47.994;7.854;2024-01-30T04:04:30;6.60;;;2.97;;
2452;SDS011;63678;47.994;7.854;2024-01-30T04:07:02;6.43;;;3.15;;
2452;SDS011;63678;47.994;7.854;2024-01-30T04:09:35;6.28;;;2.97;;
2452;SDS011;63678;47.994;7.854;2024-01-30T04:12:07;7.88;;;3.13;;
2452;SDS011;63678;47.994;7.854;2024-01-30T04:14:40;5.07;;;2.95;;
2452;SDS011;63678;47.994;7.854;2024-01-30T04:17:12;5.10;;;3.10;;
2452;SDS011;63678;47.994;7.854;2024-01-30T04:19:44;4.90;;;3.05;;
2452;SDS011;63678;47.994;7.854;2024-01-30T04:22:17;6.40;;;3.33;;
2452;SDS011;63678;47.994;7.854;2024-01-30T04:24:49;5.97;;;2.95;;
2452;SDS011;63678;47.994;7.854;2024-01-30T04:27:22;6.93;;;3.20;;
2452;SDS011;63678;47.994;7.854;2024-01-30T04:29:54;4.70;;;2.70;;
2452;SDS011;63678;47.994;7.854;2024-01-30T04:32:27;8.52;;;3.30;;
2452;SDS011;63678;47.994;7.854;2024-01-30T04:34:59;5.00;;;3.25;;
2452;SDS011;63678;47.994;7.854;2024-01-30T04:37:32;7.40;;;3.10;;
2452;SDS011;63678;47.994;7.854;2024-01-30T04:40:04;5.15;;;2.97;;
2452;SDS011;63678;47.994;7.854;2024-01-30T04:42:37;5.57;;;2.57;;
2452;SDS011;63678;47.994;7.854;2024-01-30T04:45:10;6.13;;;2.95;;
2452;SDS011;63678;47.994;7.854;2024-01-30T04:47:43;4.95;;;2.65;;
2452;SDS011;63678;47.994;7.854;2024-01-30T04:50:15;6.85;;;3.00;;
2452;SDS011;63678;47.994;7.854;2024-01-30T04:52:47;5.45;;;2.80;;
2452;SDS011;63678;47.994;7.854;2024-01-30T04:55:19;5.30;;;2.90;;
2452;SDS011;63678;47.994;7.854;2024-01-30T04:57:54;6.00;;;2.70;;
2452;SDS011;63678;47.994;7.854;2024-01-30T05:00:26;5.85;;;3.33;;
2452;SDS011;63678;47.994;7.854;2024-01-30T05:02:59;4.82;;;2.90;;
2452;SDS011;63678;47.994;7.854;2024-01-30T05:05:31;8.45;;;3.22;;
2452;SDS011;63678;47.994;7.854;2024-01-30T05:08:03;6.73;;;3.73;;
2452;SDS011;63678;47.994;7.854;2024-01-30T05:10:35;5.22;;;2.88;;
2452;SDS011;63678;47.994;7.854;2024-01-30T05:13:08;6.07;;;3.10;;
2452;SDS011;63678;47.994;7.854;2024-01-30T05:15:40;6.25;;;3.00;;
2452;SDS011;63678;47.994;7.854;2024-01-30T05:18:13;5.07;;;3.10;;
2452;SDS011;63678;47.994;7.854;2024-01-30T05:20:45;7.47;;;3.73;;
2452;SDS011;63678;47.994;7.854;2024-01-30T05:23:18;6.88;;;2.95;;
2452;SDS011;63678;47.994;7.854;2024-01-30T05:25:50;5.90;;;3.10;;
2452;SDS011;63678;47.994;7.854;2024-01-30T05:28:22;5.55;;;3.40;;
2452;SDS011;63678;47.994;7.854;2024-01-30T05:30:55;5.32;;;2.83;;
2452;SDS011;63678;47.994;7.854;2024-01-30T05:33:28;5.73;;;3.40;;
2452;SDS011;63678;47.994;7.854;2024-01-30T05:36:00;5.57;;;3.60;;
2452;SDS011;63678;47.994;7.854;2024-01-30T05:38:32;5.95;;;3.30;;
2452;SDS011;63678;47.994;7.854;2024-01-30T05:41:05;6.85;;;3.08;;
2452;SDS011;63678;47.994;7.854;2024-01-30T05:43:37;5.10;;;3.10;;
2452;SDS011;63678;47.994;7.854;2024-01-30T05:46:10;6.07;;;3.50;;
2452;SDS011;63678;47.994;7.854;2024-01-30T05:48:42;6.80;;;3.50;;
2452;SDS011;63678;47.994;7.854;2024-01-30T05:51:15;5.63;;;3.30;;
2452;SDS011;63678;47.994;7.854;2024-01-30T05:53:47;5.60;;;3.47;;
2452;SDS011;63678;47.994;7.854;2024-01-30T05:56:20;5.60;;;3.55;;
2452;SDS011;63678;47.994;7.854;2024-01-30T05:58:52;7.10;;;3.30;;
2452;SDS011;63678;47.994;7.854;2024-01-30T06:01:24;5.70;;;2.95;;
2452;SDS011;63678;47.994;7.854;2024-01-30T06:03:57;6.97;;;3.45;;
2452;SDS011;63678;47.994;7.854;2024-01-30T06:06:29;7.38;;;3.42;;
2452;SDS011;63678;47.994;7.854;2024-01-30T06:09:01;7.80;;;3.40;;
2452;SDS011;63678;47.994;7.854;2024-01-30T06:11:34;5.43;;;3.10;;
2452;SDS011;63678;47.994;7.854;2024-01-30T06:14:06;6.10;;;3.35;;
2452;SDS011;63678;47.994;7.854;2024-01-30T06:16:38;7.90;;;3.60;;
2452;SDS011;63678;47.994;7.854;2024-01-30T06:19:11;6.78;;;3.30;;
2452;SDS011;63678;47.994;7.854;2024-01-30T06:21:44;5.88;;;3.70;;
2452;SDS011;63678;47.994;7.854;2024-01-30T06:24:16;6.87;;;3.60;;
2452;SDS011;63678;47.994;7.854;2024-01-30T06:26:49;6.07;;;3.50;;
2452;SDS011;63678;47.994;7.854;2024-01-30T06:29:21;8.15;;;3.35;;
2452;SDS011;63678;47.994;7.854;2024-01-30T06:31:56;8.80;;;3.72;;
2452;SDS011;63678;47.994;7.854;2024-01-30T06:34:29;8.90;;;4.45;;
2452;SDS011;63678;47.994;7.854;2024-01-30T06:37:02;6.80;;;4.07;;
2452;SDS011;63678;47.994;7.854;2024-01-30T06:39:35;7.70;;;3.30;;
2452;SDS011;63678;47.994;7.854;2024-01-30T06:42:07;8.25;;;3.83;;
2452;SDS011;63678;47.994;7.854;2024-01-30T06:44:40;6.18;;;3.70;;
2452;SDS011;63678;47.994;7.854;2024-01-30T06:47:13;5.93;;;3.00;;
2452;SDS011;63678;47.994;7.854;2024-01-30T06:49:45;6.73;;;3.70;;
2452;SDS011;63678;47.994;7.854;2024-01-30T06:52:17;7.80;;;3.40;;
2452;SDS011;63678;47.994;7.854;2024-01-30T06:54:50;8.75;;;3.72;;
2452;SDS011;63678;47.994;7.854;2024-01-30T06:57:22;8.90;;;3.10;;
2452;SDS011;63678;47.994;7.854;2024-01-30T06:59:55;8.75;;;3.40;;
2452;SDS011;63678;47.994;7.854;2024-01-30T07:02:27;6.23;;;3.83;;
2452;SDS011;63678;47.994;7.854;2024-01-30T07:05:00;6.45;;;3.35;;
2452;SDS011;63678;47.994;7.854;2024-01-30T07:07:32;6.97;;;3.75;;
2452;SDS011;63678;47.994;7.854;2024-01-30T07:10:05;7.03;;;3.40;;
2452;SDS011;63678;47.994;7.854;2024-01-30T07:12:38;6.97;;;3.50;;
2452;SDS011;63678;47.994;7.854;2024-01-30T07:15:11;7.83;;;3.90;;
2452;SDS011;63678;47.994;7.854;2024-01-30T07:17:46;8.10;;;3.92;;
2452;SDS011;63678;47.994;7.854;2024-01-30T07:20:18;5.70;;;3.40;;
2452;SDS011;63678;47.994;7.854;2024-01-30T07:22:52;7.60;;;3.65;;
2452;SDS011;63678;47.994;7.854;2024-01-30T07:25:24;6.50;;;3.30;;
2452;SDS011;63678;47.994;7.854;2024-01-30T07:27:58;7.47;;;3.75;;
2452;SDS011;63678;47.994;7.854;2024-01-30T07:30:31;9.95;;;3.80;;
2452;SDS011;63678;47.994;7.854;2024-01-30T07:33:03;7.82;;;3.83;;
2452;SDS011;63678;47.994;7.854;2024-01-30T07:35:36;6.90;;;3.55;;
2452;SDS011;63678;47.994;7.854;2024-01-30T07:38:08;9.13;;;4.00;;
2452;SDS011;63678;47.994;7.854;2024-01-30T07:40:40;6.90;;;3.80;;
2452;SDS011;63678;47.994;7.854;2024-01-30T07:43:12;8.63;;;4.45;;
2452;SDS011;63678;47.994;7.854;2024-01-30T07:45:45;7.80;;;4.50;;
2452;SDS011;63678;47.994;7.854;2024-01-30T07:48:17;8.88;;;4.15;;
2452;SDS011;63678;47.994;7.854;2024-01-30T07:50:50;7.20;;;3.70;;
2452;SDS011;63678;47.994;7.854;2024-01-30T07:53:22;11.70;;;4.53;;
2452;SDS011;63678;47.994;7.854;2024-01-30T07:55:54;8.68;;;4.68;;
2452;SDS011;63678;47.994;7.854;2024-01-30T07:58:26;11.68;;;4.30;;
2452;SDS011;63678;47.994;7.854;2024-01-30T08:00:59;9.05;;;5.40;;
2452;SDS011;63678;47.994;7.854;2024-01-30T08:03:32;10.10;;;5.20;;
2452;SDS011;63678;47.994;7.854;2024-01-30T08:06:06;7.90;;;4.40;;
2452;SDS011;63678;47.994;7.854;2024-01-30T08:08:38;7.47;;;4.40;;
2452;SDS011;63678;47.994;7.854;2024-01-30T08:11:11;8.20;;;4.18;;
2452;SDS011;63678;47.994;7.854;2024-01-30T08:13:44;9.45;;;4.82;;
2452;SDS011;63678;47.994;7.854;2024-01-30T08:16:16;8.48;;;4.10;;
2452;SDS011;63678;47.994;7.854;2024-01-30T08:18:49;10.33;;;4.47;;
2452;SDS011;63678;47.994;7.854;2024-01-30T08:21:21;9.98;;;5.38;;
2452;SDS011;63678;47.994;7.854;2024-01-30T08:23:53;10.50;;;5.32;;
2452;SDS011;63678;47.994;7.854;2024-01-30T08:26:25;10.68;;;5.20;;
2452;SDS011;63678;47.994;7.854;2024-01-30T08:28:58;10.15;;;4.10;;
2452;SDS011;63678;47.994;7.854;2024-01-30T08:31:31;5.93;;;3.80;;
2452;SDS011;63678;47.994;7.854;2024-01-30T08:34:03;10.20;;;3.85;;
2452;SDS011;63678;47.994;7.854;2024-01-30T08:36:36;7.45;;;3.60;;
2452;SDS011;63678;47.994;7.854;2024-01-30T08:39:08;7.32;;;4.25;;
2452;SDS011;63678;47.994;7.854;2024-01-30T08:41:40;10.23;;;4.22;;
2452;SDS011;63678;47.994;7.854;2024-01-30T08:44:13;9.80;;;4.20;;
2452;SDS011;63678;47.994;7.854;2024-01-30T08:46:46;8.85;;;4.15;;
2452;SDS011;63678;47.994;7.854;2024-01-30T08:49:28;8.63;;;3.83;;
2452;SDS011;63678;47.994;7.854;2024-01-30T08:52:01;6.43;;;4.00;;
2452;SDS011;63678;47.994;7.854;2024-01-30T08:54:33;8.23;;;4.60;;
2452;SDS011;63678;47.994;7.854;2024-01-30T08:57:06;7.80;;;3.70;;
2452;SDS011;63678;47.994;7.854;2024-01-30T08:59:39;9.20;;;4.32;;
2452;SDS011;63678;47.994;7.854;2024-01-30T09:02:13;7.20;;;3.83;;
2452;SDS011;63678;47.994;7.854;2024-01-30T09:04:48;8.25;;;3.95;;
2452;SDS011;63678;47.994;7.854;2024-01-30T09:07:21;8.57;;;4.28;;
2452;SDS011;63678;47.994;7.854;2024-01-30T09:09:55;9.05;;;5.43;;
2452;SDS011;63678;47.994;7.854;2024-01-30T09:12:51;10.43;;;3.95;;
2452;SDS011;63678;47.994;7.854;2024-01-30T09:15:24;9.15;;;4.07;;
2452;SDS011;63678;47.994;7.854;2024-01-30T09:17:57;9.70;;;4.18;;
2452;SDS011;63678;47.994;7.854;2024-01-30T09:20:29;10.90;;;3.97;;
2452;SDS011;63678;47.994;7.854;2024-01-30T09:23:05;8.02;;;4.35;;
2452;SDS011;63678;47.994;7.854;2024-01-30T09:25:38;8.65;;;3.70;;
2452;SDS011;63678;47.994;7.854;2024-01-30T09:28:11;9.77;;;3.78;;
2452;SDS011;63678;47.994;7.854;2024-01-30T09:30:44;9.85;;;4.05;;
2452;SDS011;63678;47.994;7.854;2024-01-30T09:33:16;9.75;;;4.25;;
2452;SDS011;63678;47.994;7.854;2024-01-30T09:35:48;13.50;;;4.63;;
2452;SDS011;63678;47.994;7.854;2024-01-30T09:38:21;9.18;;;4.50;;
2452;SDS011;63678;47.994;7.854;2024-01-30T09:40:54;11.07;;;4.28;;
2452;SDS011;63678;47.994;7.854;2024-01-30T09:43:31;11.38;;;4.30;;
2452;SDS011;63678;47.994;7.854;2024-01-30T09:46:06;8.48;;;3.65;;
2452;SDS011;63678;47.994;7.854;2024-01-30T09:48:46;13.02;;;4.45;;
2452;SDS011;63678;47.994;7.854;2024-01-30T09:51:19;11.45;;;5.03;;
2452;SDS011;63678;47.994;7.854;2024-01-30T09:53:54;9.20;;;4.07;;
2452;SDS011;63678;47.994;7.854;2024-01-30T09:56:27;6.97;;;4.07;;
2452;SDS011;63678;47.994;7.854;2024-01-30T09:59:01;14.20;;;4.68;;
2452;SDS011;63678;47.994;7.854;2024-01-30T10:01:34;7.65;;;3.88;;
2452;SDS011;63678;47.994;7.854;2024-01-30T10:04:08;8.00;;;3.60;;
2452;SDS011;63678;47.994;7.854;2024-01-30T10:06:40;8.88;;;3.65;;
2452;SDS011;63678;47.994;7.854;2024-01-30T10:09:13;10.20;;;4.35;;
2452;SDS011;63678;47.994;7.854;2024-01-30T10:11:45;7.95;;;3.83;;
2452;SDS011;63678;47.994;7.854;2024-01-30T10:14:18;9.52;;;4.10;;
2452;SDS011;63678;47.994;7.854;2024-01-30T10:16:50;7.88;;;4.22;;
2452;SDS011;63678;47.994;7.854;2024-01-30T10:19:23;7.15;;;4.22;;
2452;SDS011;63678;47.994;7.854;2024-01-30T10:21:55;8.82;;;4.22;;
2452;SDS011;63678;47.994;7.854;2024-01-30T10:24:27;7.60;;;4.13;;
2452;SDS011;63678;47.994;7.854;2024-01-30T10:27:01;6.90;;;4.05;;
2452;SDS011;63678;47.994;7.854;2024-01-30T10:29:33;7.53;;;3.17;;
2452;SDS011;63678;47.994;7.854;2024-01-30T10:32:05;8.45;;;3.67;;
2452;SDS011;63678;47.994;7.854;2024-01-30T10:34:37;8.60;;;3.60;;
2452;SDS011;63678;47.994;7.854;2024-01-30T10:37:10;8.07;;;3.90;;
2452;SDS011;63678;47.994;7.854;2024-01-30T10:39:49;8.18;;;4.10;;
2452;SDS011;63678;47.994;7.854;2024-01-30T10:42:26;8.77;;;3.80;;
2452;SDS011;63678;47.994;7.854;2024-01-30T10:47:37;11.27;;;3.88;;
2452;SDS011;63678;47.994;7.854;2024-01-30T10:50:11;9.40;;;3.60;;
2452;SDS011;63678;47.994;7.854;2024-01-30T10:52:44;7.90;;;4.10;;
2452;SDS011;63678;47.994;7.854;2024-01-30T10:55:17;8.63;;;3.37;;
2452;SDS011;63678;47.994;7.854;2024-01-30T10:57:50;7.70;;;3.75;;
2452;SDS011;63678;47.994;7.854;2024-01-30T11:00:23;8.88;;;3.45;;
2452;SDS011;63678;47.994;7.854;2024-01-30T11:02:57;7.03;;;3.30;;
2452;SDS011;63678;47.994;7.854;2024-01-30T11:05:30;7.47;;;3.90;;
2452;SDS011;63678;47.994;7.854;2024-01-30T11:08:11;9.80;;;3.50;;
2452;SDS011;63678;47.994;7.854;2024-01-30T11:10:48;8.45;;;2.88;;
2452;SDS011;63678;47.994;7.854;2024-01-30T11:13:20;5.32;;;2.90;;
2452;SDS011;63678;47.994;7.854;2024-01-30T11:15:53;6.88;;;3.35;;
2452;SDS011;63678;47.994;7.854;2024-01-30T11:18:26;6.15;;;3.42;;
2452;SDS011;63678;47.994;7.854;2024-01-30T11:21:00;6.37;;;3.50;;
2452;SDS011;63678;47.994;7.854;2024-01-30T11:23:33;7.03;;;3.33;;
2452;SDS011;63678;47.994;7.854;2024-01-30T11:26:07;7.15;;;3.35;;
2452;SDS011;63678;47.994;7.854;2024-01-30T11:28:42;7.85;;;2.97;;
2452;SDS011;63678;47.994;7.854;2024-01-30T11:31:24;6.55;;;2.83;;
2452;SDS011;63678;47.994;7.854;2024-01-30T11:33:56;4.77;;;2.80;;
2452;SDS011;63678;47.994;7.854;2024-01-30T11:36:30;5.90;;;2.92;;
2452;SDS011;63678;47.994;7.854;2024-01-30T11:39:08;6.47;;;3.05;;
2452;SDS011;63678;47.994;7.854;2024-01-30T11:42:08;5.82;;;2.60;;
2452;SDS011;63678;47.994;7.854;2024-01-30T11:44:41;6.47;;;3.38;;
2452;SDS011;63678;47.994;7.854;2024-01-30T11:47:20;6.73;;;3.17;;
2452;SDS011;63678;47.994;7.854;2024-01-30T11:49:54;5.78;;;3.45;;
2452;SDS011;63678;47.994;7.854;2024-01-30T11:52:31;6.00;;;3.33;;
2452;SDS011;63678;47.994;7.854;2024-01-30T11:55:07;7.18;;;3.42;;
2452;SDS011;63678;47.994;7.854;2024-01-30T11:57:41;6.97;;;3.28;;
2452;SDS011;63678;47.994;7.854;2024-01-30T12:00:16;5.55;;;3.13;;
2452;SDS011;63678;47.994;7.854;2024-01-30T12:02:54;6.00;;;3.40;;
2452;SDS011;63678;47.994;7.854;2024-01-30T12:05:28;6.43;;;2.88;;
2452;SDS011;63678;47.994;7.854;2024-01-30T12:08:01;5.25;;;2.97;;
2452;SDS011;63678;47.994;7.854;2024-01-30T12:10:34;6.45;;;2.80;;
2452;SDS011;63678;47.994;7.854;2024-01-30T12:13:07;6.77;;;2.80;;
2452;SDS011;63678;47.994;7.854;2024-01-30T12:15:40;5.90;;;3.15;;
2452;SDS011;63678;47.994;7.854;2024-01-30T12:18:14;9.85;;;3.50;;
2452;SDS011;63678;47.994;7.854;2024-01-30T12:20:56;8.85;;;4.25;;
2452;SDS011;63678;47.994;7.854;2024-01-30T12:23:33;11.77;;;3.05;;
2452;SDS011;63678;47.994;7.854;2024-01-30T12:26:06;7.30;;;3.20;;
2452;SDS011;63678;47.994;7.854;2024-01-30T12:28:47;7.10;;;3.35;;
2452;SDS011;63678;47.994;7.854;2024-01-30T12:31:28;8.18;;;3.17;;
2452;SDS011;63678;47.994;7.854;2024-01-30T12:34:01;8.73;;;3.53;;
2452;SDS011;63678;47.994;7.854;2024-01-30T12:36:33;7.97;;;3.70;;
2452;SDS011;63678;47.994;7.854;2024-01-30T12:39:06;5.72;;;3.78;;
2452;SDS011;63678;47.994;7.854;2024-01-30T12:41:44;8.52;;;3.33;;
2452;SDS011;63678;47.994;7.854;2024-01-30T12:44:17;5.68;;;2.90;;
2452;SDS011;63678;47.994;7.854;2024-01-30T12:46:49;7.50;;;3.90;;
2452;SDS011;63678;47.994;7.854;2024-01-30T12:49:22;6.40;;;3.60;;
2452;SDS011;63678;47.994;7.854;2024-01-30T12:51:58;9.97;;;3.77;;
2452;SDS011;63678;47.994;7.854;2024-01-30T12:54:30;8.00;;;3.83;;
2452;SDS011;63678;47.994;7.854;2024-01-30T12:57:03;7.80;;;3.50;;
2452;SDS011;63678;47.994;7.854;2024-01-30T12:59:37;8.25;;;3.95;;
2452;SDS011;63678;47.994;7.854;2024-01-30T13:02:11;6.15;;;3.58;;
2452;SDS011;63678;47.994;7.854;2024-01-30T13:04:44;6.47;;;4.03;;
2452;SDS011;63678;47.994;7.854;2024-01-30T13:07:21;10.20;;;3.55;;
2452;SDS011;63678;47.994;7.854;2024-01-30T13:09:54;6.40;;;3.40;;
2452;SDS011;63678;47.994;7.854;2024-01-30T13:12:26;6.30;;;3.50;;
2452;SDS011;63678;47.994;7.854;2024-01-30T13:14:59;8.02;;;3.83;;
2452;SDS011;63678;47.994;7.854;2024-01-30T13:17:36;9.43;;;3.65;;
2452;SDS011;63678;47.994;7.854;2024-01-30T13:20:09;10.30;;;3.75;;
2452;SDS011;63678;47.994;7.854;2024-01-30T13:22:43;6.45;;;3.35;;
2452;SDS011;63678;47.994;7.854;2024-01-30T13:25:16;7.53;;;3.60;;
2452;SDS011;63678;47.994;7.854;2024-01-30T13:27:49;8.02;;;3.47;;
2452;SDS011;63678;47.994;7.854;2024-01-30T13:30:22;8.00;;;3.67;;
2452;SDS011;63678;47.994;7.854;2024-01-30T13:32:55;6.75;;;3.50;;
2452;SDS011;63678;47.994;7.854;2024-01-30T13:35:27;9.57;;;3.97;;
2452;SDS011;63678;47.994;7.854;2024-01-30T13:38:00;7.75;;;3.47;;
2452;SDS011;63678;47.994;7.854;2024-01-30T13:40:33;8.00;;;3.58;;
2452;SDS011;63678;47.994;7.854;2024-01-30T13:43:06;6.72;;;4.00;;
2452;SDS011;63678;47.994;7.854;2024-01-30T13:45:39;7.35;;;3.63;;
2452;SDS011;63678;47.994;7.854;2024-01-30T13:48:13;6.28;;;3.50;;
2452;SDS011;63678;47.994;7.854;2024-01-30T13:50:46;8.27;;;4.05;;
2452;SDS011;63678;47.994;7.854;2024-01-30T13:53:20;8.48;;;3.88;;
2452;SDS011;63678;47.994;7.854;2024-01-30T13:55:52;7.07;;;3.90;;
2452;SDS011;63678;47.994;7.854;2024-01-30T13:58:25;7.78;;;4.53;;
2452;SDS011;63678;47.994;7.854;2024-01-30T14:00:57;11.45;;;4.78;;
2452;SDS011;63678;47.994;7.854;2024-01-30T14:03:30;7.82;;;4.38;;
2452;SDS011;63678;47.994;7.854;2024-01-30T14:06:02;9.00;;;4.50;;
2452;SDS011;63678;47.994;7.854;2024-01-30T14:08:36;10.93;;;4.88;;
2452;SDS011;63678;47.994;7.854;2024-01-30T14:11:09;9.20;;;4.63;;
2452;SDS011;63678;47.994;7.854;2024-01-30T14:13:42;10.82;;;4.85;;
2452;SDS011;63678;47.994;7.854;2024-01-30T14:16:14;10.27;;;5.25;;
2452;SDS011;63678;47.994;7.854;2024-01-30T14:18:47;9.82;;;4.80;;
2452;SDS011;63678;47.994;7.854;2024-01-30T14:21:20;12.23;;;5.03;;
2452;SDS011;63678;47.994;7.854;2024-01-30T14:23:52;7.47;;;4.00;;
2452;SDS011;63678;47.994;7.854;2024-01-30T14:26:25;6.85;;;4.18;;
2452;SDS011;63678;47.994;7.854;2024-01-30T14:28:58;12.68;;;5.13;;
2452;SDS011;63678;47.994;7.854;2024-01-30T14:31:31;10.82;;;5.18;;
2452;SDS011;63678;47.994;7.854;2024-01-30T14:34:04;14.77;;;5.97;;
2452;SDS011;63678;47.994;7.854;2024-01-30T14:36:38;10.73;;;5.72;;
2452;SDS011;63678;47.994;7.854;2024-01-30T14:39:11;14.40;;;6.50;;
2452;SDS011;63678;47.994;7.854;2024-01-30T14:41:43;11.32;;;5.00;;
2452;SDS011;63678;47.994;7.854;2024-01-30T14:44:17;11.38;;;5.35;;
2452;SDS011;63678;47.994;7.854;2024-01-30T14:46:51;10.70;;;5.50;;
2452;SDS011;63678;47.994;7.854;2024-01-30T14:49:24;13.85;;;5.25;;
2452;SDS011;63678;47.994;7.854;2024-01-30T14:51:57;9.82;;;5.07;;
2452;SDS011;63678;47.994;7.854;2024-01-30T14:54:30;12.82;;;5.65;;
2452;SDS011;63678;47.994;7.854;2024-01-30T14:57:03;10.23;;;5.03;;
2452;SDS011;63678;47.994;7.854;2024-01-30T14:59:36;10.07;;;5.13;;
2452;SDS011;63678;47.994;7.854;2024-01-30T15:02:08;13.57;;;4.60;;
2452;SDS011;63678;47.994;7.854;2024-01-30T15:04:41;10.70;;;5.47;;
2452;SDS011;63678;47.994;7.854;2024-01-30T15:07:14;8.35;;;4.45;;
2452;SDS011;63678;47.994;7.854;2024-01-30T15:09:59;12.85;;;6.00;;
2452;SDS011;63678;47.994;7.854;2024-01-30T15:12:32;13.30;;;5.70;;
2452;SDS011;63678;47.994;7.854;2024-01-30T15:15:07;14.15;;;5.68;;
2452;SDS011;63678;47.994;7.854;2024-01-30T15:17:42;12.45;;;4.80;;
2452;SDS011;63678;47.994;7.854;2024-01-30T15:20:16;12.30;;;5.38;;
2452;SDS011;63678;47.994;7.854;2024-01-30T15:22:49;12.57;;;5.68;;
2452;SDS011;63678;47.994;7.854;2024-01-30T15:25:23;10.07;;;5.15;;
2452;SDS011;63678;47.994;7.854;2024-01-30T15:27:55;10.60;;;4.90;;
2452;SDS011;63678;47.994;7.854;2024-01-30T15:30:28;10.45;;;4.85;;
2452;SDS011;63678;47.994;7.854;2024-01-30T15:33:01;10.00;;;4.90;;
2452;SDS011;63678;47.994;7.854;2024-01-30T15:35:34;8.80;;;4.93;;
2452;SDS011;63678;47.994;7.854;2024-01-30T15:38:07;13.60;;;5.35;;
2452;SDS011;63678;47.994;7.854;2024-01-30T15:40:40;13.50;;;5.90;;